createdAt,value
2023-03-29T00:02:07.369Z,99.90
2023-03-29T00:04:34.725Z,99.90
2023-03-29T00:07:05.064Z,99.90
2023-03-29T00:09:35.892Z,99.90
2023-03-29T00:12:02.867Z,99.90
2023-03-29T00:14:30.810Z,99.90
2023-03-29T00:16:58.507Z,99.90
2023-03-29T00:19:25.949Z,99.90
2023-03-29T00:21:52.867Z,99.90
2023-03-29T00:24:21.225Z,99.90
2023-03-29T00:26:48.764Z,99.90
2023-03-29T00:29:16.711Z,99.90
2023-03-29T00:31:45.940Z,99.90
2023-03-29T00:34:12.952Z,99.90
2023-03-29T00:36:40.362Z,99.90
2023-03-29T00:39:07.379Z,99.90
2023-03-29T00:41:36.910Z,99.90
2023-03-29T00:44:04.577Z,99.90
2023-03-29T00:46:32.398Z,99.90
2023-03-29T00:49:07.236Z,99.90
2023-03-29T00:51:36.690Z,99.90
2023-03-29T00:54:06.337Z,99.90
2023-03-29T00:56:37.534Z,99.90
2023-03-29T00:59:16.330Z,99.90
2023-03-29T01:01:50.399Z,99.90
2023-03-29T01:04:42.678Z,99.90
2023-03-29T01:07:18.767Z,99.90
2023-03-29T01:09:53.242Z,99.90
2023-03-29T01:12:25.230Z,99.90
2023-03-29T01:14:58.582Z,99.90
2023-03-29T01:17:26.019Z,99.90
2023-03-29T01:20:07.941Z,99.90
2023-03-29T01:23:01.550Z,99.90
2023-03-29T01:25:40.443Z,99.90
2023-03-29T01:28:17.440Z,99.90
2023-03-29T01:30:52.037Z,99.90
2023-03-29T01:33:23.705Z,99.90
2023-03-29T01:36:08.166Z,99.90
2023-03-29T01:38:39.703Z,99.90
2023-03-29T01:41:07.962Z,99.90
2023-03-29T01:43:34.870Z,99.90
2023-03-29T01:46:47.192Z,99.90
2023-03-29T01:49:23.671Z,99.90
2023-03-29T01:52:01.524Z,99.90
2023-03-29T01:54:39.471Z,99.90
2023-03-29T01:57:10.221Z,99.90
2023-03-29T01:59:42.496Z,99.90
2023-03-29T02:02:14.665Z,99.90
2023-03-29T02:04:48.124Z,99.90
2023-03-29T02:07:17.510Z,99.90
2023-03-29T02:09:45.293Z,99.90
2023-03-29T02:12:13.510Z,99.90
2023-03-29T02:14:40.526Z,99.90
2023-03-29T02:17:19.734Z,99.90
2023-03-29T02:19:52.024Z,99.90
2023-03-29T02:22:36.653Z,99.90
2023-03-29T02:25:06.384Z,99.90
2023-03-29T02:27:33.511Z,99.90
2023-03-29T02:30:00.586Z,99.90
2023-03-29T02:32:51.775Z,99.90
2023-03-29T02:35:27.678Z,99.90
2023-03-29T02:37:57.437Z,99.90
2023-03-29T02:40:26.111Z,99.90
2023-03-29T02:42:55.987Z,99.90
2023-03-29T02:45:24.143Z,99.90
2023-03-29T02:47:55.387Z,99.90
2023-03-29T02:50:26.269Z,99.90
2023-03-29T02:52:59.422Z,99.90
2023-03-29T02:55:34.497Z,99.90
2023-03-29T02:58:08.027Z,99.90
2023-03-29T03:00:44.838Z,99.90
2023-03-29T03:03:13.230Z,99.90
2023-03-29T03:05:40.552Z,99.90
2023-03-29T03:08:07.599Z,99.90
2023-03-29T03:10:35.251Z,99.90
2023-03-29T03:13:04.433Z,99.90
2023-03-29T03:15:37.419Z,99.90
2023-03-29T03:18:04.634Z,99.90
2023-03-29T03:20:33.345Z,99.90
2023-03-29T03:23:03.367Z,99.90
2023-03-29T03:25:31.673Z,99.90
2023-03-29T03:27:58.668Z,99.90
2023-03-29T03:30:25.572Z,99.90
2023-03-29T03:33:11.871Z,99.90
2023-03-29T03:36:14.058Z,99.90
2023-03-29T03:38:44.215Z,99.90
2023-03-29T03:41:11.809Z,99.90
2023-03-29T03:43:41.590Z,99.90
2023-03-29T03:46:08.721Z,99.90
2023-03-29T03:48:37.217Z,99.90
2023-03-29T03:51:17.589Z,99.90
2023-03-29T03:53:45.129Z,99.90
2023-03-29T03:56:13.418Z,99.90
2023-03-29T03:59:01.114Z,99.90
2023-03-29T04:01:31.220Z,99.90
2023-03-29T04:04:04.905Z,99.90
2023-03-29T04:06:32.969Z,99.90
2023-03-29T04:09:18.638Z,99.90
2023-03-29T04:11:53.213Z,99.90
2023-03-29T04:14:20.645Z,99.90
2023-03-29T04:17:09.061Z,99.90
2023-03-29T04:19:53.127Z,99.90
2023-03-29T04:22:20.413Z,99.90
2023-03-29T04:24:48.576Z,99.90
2023-03-29T04:27:44.993Z,99.90
2023-03-29T04:30:22.972Z,99.90
2023-03-29T04:33:10.419Z,99.90
2023-03-29T04:35:40.172Z,99.90
2023-03-29T04:38:11.645Z,99.90
2023-03-29T04:40:40.875Z,99.90
2023-03-29T04:43:29.866Z,99.90
2023-03-29T04:46:10.669Z,99.90
2023-03-29T04:49:16.583Z,99.90
2023-03-29T04:51:47.825Z,99.90
2023-03-29T04:54:17.765Z,99.90
2023-03-29T04:57:08.291Z,99.90
2023-03-29T04:59:37.374Z,99.90
2023-03-29T05:02:15.018Z,99.90
2023-03-29T05:04:45.084Z,99.90
2023-03-29T05:07:15.412Z,99.90
2023-03-29T05:09:42.648Z,99.90
2023-03-29T05:12:11.117Z,99.90
2023-03-29T05:14:52.042Z,99.90
2023-03-29T05:17:20.940Z,99.90
2023-03-29T05:19:49.042Z,99.90
2023-03-29T05:22:16.733Z,99.90
2023-03-29T05:24:43.931Z,99.90
2023-03-29T05:27:15.572Z,99.90
2023-03-29T05:29:45.049Z,99.90
2023-03-29T05:32:24.180Z,99.90
2023-03-29T05:34:51.577Z,99.90
2023-03-29T05:37:19.058Z,99.90
2023-03-29T05:39:55.026Z,99.90
2023-03-29T05:42:38.013Z,99.90
2023-03-29T05:45:08.774Z,99.90
2023-03-29T05:47:36.102Z,99.90
2023-03-29T05:50:03.436Z,99.90
2023-03-29T05:52:30.821Z,99.90
2023-03-29T05:54:57.721Z,99.90
2023-03-29T05:57:24.738Z,99.90
2023-03-29T05:59:51.608Z,99.90
2023-03-29T06:02:18.857Z,99.90
2023-03-29T06:04:51.641Z,99.90
2023-03-29T06:07:24.550Z,99.90
2023-03-29T06:10:29.844Z,99.90
2023-03-29T06:13:11.910Z,99.90
2023-03-29T06:15:39.220Z,99.90
2023-03-29T06:18:10.798Z,99.90
2023-03-29T06:20:38.547Z,99.90
2023-03-29T06:23:11.757Z,99.90
2023-03-29T06:25:38.505Z,99.90
2023-03-29T06:28:06.199Z,99.90
2023-03-29T06:30:34.353Z,99.90
2023-03-29T06:33:01.502Z,99.90
2023-03-29T06:35:48.569Z,99.90
2023-03-29T06:38:20.831Z,99.90
2023-03-29T06:41:14.866Z,99.90
2023-03-29T06:43:57.851Z,99.90
2023-03-29T06:46:31.854Z,99.90
2023-03-29T06:49:01.863Z,99.90
2023-03-29T06:51:57.076Z,99.90
2023-03-29T06:54:24.341Z,99.90
2023-03-29T06:57:00.180Z,99.90
2023-03-29T06:59:28.957Z,99.90
2023-03-29T07:02:09.979Z,99.90
2023-03-29T07:05:11.426Z,99.90
2023-03-29T07:07:56.734Z,99.90
2023-03-29T07:10:42.767Z,99.90
2023-03-29T07:13:28.384Z,99.90
2023-03-29T07:15:58.549Z,99.90
2023-03-29T07:18:41.643Z,99.90
2023-03-29T07:21:12.371Z,99.90
2023-03-29T07:23:40.770Z,99.90
2023-03-29T07:26:08.121Z,99.90
2023-03-29T07:28:37.453Z,99.90
2023-03-29T07:31:07.399Z,99.90
2023-03-29T07:33:40.919Z,99.90
2023-03-29T07:36:11.109Z,99.90
2023-03-29T07:38:38.561Z,99.90
2023-03-29T07:41:13.350Z,99.90
2023-03-29T07:43:50.030Z,99.90
2023-03-29T07:46:20.989Z,99.90
2023-03-29T07:48:49.405Z,99.90
2023-03-29T07:51:16.834Z,99.90
2023-03-29T07:53:45.797Z,99.90
2023-03-29T07:56:44.868Z,99.90
2023-03-29T07:59:22.551Z,99.90
2023-03-29T08:02:02.214Z,99.90
2023-03-29T08:04:34.055Z,99.90
2023-03-29T08:07:10.049Z,99.90
2023-03-29T08:09:59.859Z,99.90
2023-03-29T08:12:59.154Z,99.90
2023-03-29T08:15:53.172Z,99.90
2023-03-29T08:18:27.494Z,99.90
2023-03-29T08:20:54.331Z,99.90
2023-03-29T08:23:21.462Z,99.90
2023-03-29T08:26:01.328Z,99.90
2023-03-29T08:28:28.482Z,99.90
2023-03-29T08:30:55.960Z,99.90
2023-03-29T08:33:22.858Z,99.90
2023-03-29T08:36:00.246Z,99.90
2023-03-29T08:38:31.064Z,99.90
2023-03-29T08:40:58.168Z,99.90
2023-03-29T08:44:00.262Z,99.90
2023-03-29T08:46:53.469Z,99.90
2023-03-29T08:49:28.616Z,99.90
2023-03-29T08:52:00.249Z,99.90
2023-03-29T08:54:33.192Z,99.90
2023-03-29T08:57:28.912Z,99.90
2023-03-29T09:00:05.124Z,99.90
2023-03-29T09:02:36.087Z,99.90
2023-03-29T09:05:31.113Z,99.90
2023-03-29T09:08:25.148Z,99.90
2023-03-29T09:11:00.744Z,99.90
2023-03-29T09:14:04.423Z,99.90
2023-03-29T09:17:02.548Z,99.90
2023-03-29T09:19:50.934Z,99.90
2023-03-29T09:22:48.924Z,99.90
2023-03-29T09:25:24.898Z,99.90
2023-03-29T09:28:10.031Z,99.90
2023-03-29T09:31:06.345Z,99.90
2023-03-29T09:33:42.956Z,99.90
2023-03-29T09:36:31.725Z,99.90
2023-03-29T09:38:59.622Z,99.90
2023-03-29T09:41:58.967Z,99.90
2023-03-29T09:44:35.925Z,99.90
2023-03-29T09:47:18.732Z,99.90
2023-03-29T09:49:50.226Z,99.90
2023-03-29T09:52:19.999Z,99.90
2023-03-29T09:55:03.676Z,99.90
2023-03-29T09:57:46.115Z,99.90
2023-03-29T10:00:16.943Z,99.90
2023-03-29T10:02:52.797Z,99.90
2023-03-29T10:05:26.313Z,99.90
2023-03-29T10:07:57.501Z,99.90
2023-03-29T10:10:30.088Z,99.90
2023-03-29T10:13:04.249Z,99.90
2023-03-29T10:15:31.800Z,99.90
2023-03-29T10:18:00.797Z,99.90
2023-03-29T10:20:28.142Z,99.90
2023-03-29T10:22:57.583Z,99.90
2023-03-29T10:25:32.980Z,99.90
2023-03-29T10:28:18.657Z,99.90
2023-03-29T10:30:52.660Z,99.90
2023-03-29T10:33:24.092Z,99.90
2023-03-29T10:35:51.558Z,99.90
2023-03-29T10:38:21.034Z,99.90
2023-03-29T10:40:53.094Z,99.90
2023-03-29T10:43:20.128Z,99.90
2023-03-29T10:45:52.487Z,99.90
2023-03-29T10:48:34.662Z,99.90
2023-03-29T10:51:03.100Z,99.90
2023-03-29T10:53:33.700Z,99.90
2023-03-29T10:56:23.040Z,99.90
2023-03-29T10:59:05.665Z,99.90
2023-03-29T11:02:10.383Z,99.90
2023-03-29T11:04:59.218Z,99.90
2023-03-29T11:07:31.503Z,99.90
2023-03-29T11:10:29.232Z,99.90
2023-03-29T11:13:18.696Z,99.90
2023-03-29T11:16:30.026Z,99.90
2023-03-29T11:19:29.958Z,97.40
2023-03-29T11:22:09.994Z,93.90
2023-03-29T11:25:33.826Z,93.30
2023-03-29T11:28:42.822Z,94.10
2023-03-29T11:31:13.315Z,95.40
2023-03-29T11:34:14.415Z,96.00
2023-03-29T11:36:44.605Z,96.10
2023-03-29T11:39:28.760Z,95.30
2023-03-29T11:42:03.703Z,95.00
2023-03-29T11:44:31.759Z,95.00
2023-03-29T11:47:01.538Z,94.80
2023-03-29T11:49:37.568Z,94.40
2023-03-29T11:52:30.934Z,94.60
2023-03-29T11:55:04.306Z,94.90
2023-03-29T11:57:37.619Z,94.50
2023-03-29T12:00:15.830Z,94.60
2023-03-29T12:03:15.067Z,94.90
2023-03-29T12:06:06.437Z,95.50
2023-03-29T12:08:46.164Z,96.00
2023-03-29T12:11:29.653Z,96.90
2023-03-29T12:14:14.595Z,97.20
2023-03-29T12:16:49.862Z,97.80
2023-03-29T12:19:38.652Z,97.10
2023-03-29T12:22:09.161Z,95.40
2023-03-29T12:24:43.385Z,95.00
2023-03-29T12:27:26.301Z,95.20
2023-03-29T12:30:08.677Z,95.90
2023-03-29T12:32:54.208Z,96.10
2023-03-29T12:36:01.564Z,96.40
2023-03-29T12:38:48.188Z,98.00
2023-03-29T12:41:37.534Z,99.50
2023-03-29T12:44:41.603Z,99.90
2023-03-29T12:47:24.421Z,99.90
2023-03-29T12:50:01.418Z,99.80
2023-03-29T12:52:34.232Z,99.00
2023-03-29T12:55:17.058Z,99.00
2023-03-29T12:58:07.251Z,99.40
2023-03-29T13:00:45.035Z,99.90
2023-03-29T13:04:01.584Z,99.90
2023-03-29T13:06:52.236Z,99.90
2023-03-29T13:09:23.408Z,99.90
2023-03-29T13:12:13.075Z,99.90
2023-03-29T13:14:46.467Z,99.90
2023-03-29T13:17:26.002Z,99.90
2023-03-29T13:20:09.391Z,99.90
2023-03-29T13:22:59.675Z,99.90
2023-03-29T13:25:54.359Z,99.90
2023-03-29T13:28:56.616Z,99.90
2023-03-29T13:31:34.884Z,99.90
2023-03-29T13:34:20.355Z,99.90
2023-03-29T13:36:50.052Z,99.90
2023-03-29T13:39:29.533Z,99.90
2023-03-29T13:42:16.653Z,98.50
2023-03-29T13:44:46.180Z,98.70
2023-03-29T13:47:48.935Z,97.50
2023-03-29T13:51:01.122Z,97.10
2023-03-29T13:53:34.926Z,96.80
2023-03-29T13:56:03.237Z,95.90
2023-03-29T13:58:42.797Z,95.40
2023-03-29T14:01:10.920Z,93.80
2023-03-29T14:03:44.935Z,91.40
2023-03-29T14:06:17.598Z,90.80
2023-03-29T14:08:45.369Z,90.60
2023-03-29T14:11:24.394Z,91.20
2023-03-29T14:14:07.544Z,91.80
2023-03-29T14:16:39.972Z,91.80
2023-03-29T14:19:18.541Z,91.40
2023-03-29T14:21:46.366Z,91.00
2023-03-29T14:24:20.848Z,91.20
2023-03-29T14:26:48.003Z,91.90
2023-03-29T14:29:15.968Z,92.70
2023-03-29T14:31:43.329Z,93.50
2023-03-29T14:34:18.389Z,94.10
2023-03-29T14:36:48.977Z,94.30
2023-03-29T14:39:25.302Z,94.30
2023-03-29T14:41:54.680Z,94.50
2023-03-29T14:44:24.290Z,94.50
2023-03-29T14:46:51.695Z,94.50
2023-03-29T14:49:20.619Z,94.50
2023-03-29T14:51:49.266Z,95.00
2023-03-29T14:54:29.568Z,95.00
2023-03-29T14:56:56.775Z,94.60
2023-03-29T14:59:32.049Z,95.00
2023-03-29T15:01:59.047Z,95.40
2023-03-29T15:04:34.034Z,95.70
2023-03-29T15:07:02.685Z,95.90
2023-03-29T15:09:34.068Z,96.00
2023-03-29T15:12:02.908Z,96.20
2023-03-29T15:14:37.070Z,96.20
2023-03-29T15:17:39.102Z,96.20
2023-03-29T15:20:23.291Z,96.00
2023-03-29T15:23:01.426Z,96.30
2023-03-29T15:25:45.881Z,96.50
2023-03-29T15:28:32.451Z,97.00
2023-03-29T15:31:08.072Z,97.00
2023-03-29T15:33:39.529Z,96.90
2023-03-29T15:36:11.672Z,96.80
2023-03-29T15:38:44.620Z,96.30
2023-03-29T15:41:14.397Z,96.40
2023-03-29T15:43:42.453Z,96.30
2023-03-29T15:46:14.301Z,96.80
2023-03-29T15:48:41.740Z,98.00
2023-03-29T15:51:12.550Z,98.80
2023-03-29T15:53:40.414Z,99.40
2023-03-29T15:56:11.261Z,99.90
2023-03-29T15:58:38.351Z,99.90
2023-03-29T16:01:11.925Z,99.90
2023-03-29T16:03:40.056Z,99.90
2023-03-29T16:06:11.422Z,99.90
2023-03-29T16:08:38.274Z,99.90
2023-03-29T16:11:06.791Z,99.90
2023-03-29T16:13:33.697Z,99.90
2023-03-29T16:16:00.637Z,99.90
2023-03-29T16:18:27.619Z,99.90
2023-03-29T16:20:54.788Z,99.90
2023-03-29T16:23:21.708Z,99.90
2023-03-29T16:25:48.626Z,99.90
2023-03-29T16:28:15.541Z,99.90
2023-03-29T16:30:42.617Z,99.90
2023-03-29T16:33:09.555Z,99.90
2023-03-29T16:35:40.042Z,99.90
2023-03-29T16:38:07.572Z,99.90
2023-03-29T16:40:35.023Z,99.90
2023-03-29T16:43:02.744Z,99.90
2023-03-29T16:45:29.717Z,99.90
2023-03-29T16:47:57.228Z,99.90
2023-03-29T16:50:24.355Z,99.90
2023-03-29T16:52:54.408Z,99.90
2023-03-29T16:55:21.408Z,99.90
2023-03-29T16:57:50.937Z,99.90
2023-03-29T17:00:19.834Z,99.90
2023-03-29T17:02:49.779Z,99.90
2023-03-29T17:05:18.625Z,99.90
2023-03-29T17:07:46.213Z,99.90
2023-03-29T17:10:13.823Z,99.90
2023-03-29T17:12:40.677Z,99.90
2023-03-29T17:15:08.263Z,99.90
2023-03-29T17:17:37.419Z,99.90
2023-03-29T17:20:08.627Z,99.90
2023-03-29T17:22:36.202Z,99.90
2023-03-29T17:25:03.853Z,99.90
2023-03-29T17:27:30.894Z,99.90
2023-03-29T17:29:57.761Z,99.90
2023-03-29T17:32:24.881Z,99.90
2023-03-29T17:34:53.068Z,99.90
2023-03-29T17:37:21.345Z,99.90
2023-03-29T17:39:48.413Z,99.90
2023-03-29T17:42:16.190Z,99.90
2023-03-29T17:44:43.548Z,99.90
2023-03-29T17:47:10.583Z,99.90
2023-03-29T17:49:37.512Z,99.90
2023-03-29T17:52:04.446Z,99.90
2023-03-29T17:54:31.269Z,99.90
2023-03-29T17:56:58.089Z,99.90
2023-03-29T17:59:25.640Z,99.90
2023-03-29T18:01:52.641Z,99.90
2023-03-29T18:04:19.514Z,99.90
2023-03-29T18:06:46.445Z,99.90
2023-03-29T18:09:13.364Z,99.90
2023-03-29T18:11:40.243Z,99.90
2023-03-29T18:14:07.521Z,99.90
2023-03-29T18:16:34.493Z,99.90
2023-03-29T18:19:01.642Z,99.90
2023-03-29T18:21:28.486Z,99.90
2023-03-29T18:23:56.938Z,99.90
2023-03-29T18:26:24.283Z,99.90
2023-03-29T18:28:51.284Z,99.90
2023-03-29T18:31:19.936Z,99.90
2023-03-29T18:33:47.555Z,99.90
2023-03-29T18:36:14.783Z,99.90
2023-03-29T18:38:43.225Z,99.90
2023-03-29T18:41:12.147Z,99.90
2023-03-29T18:43:39.924Z,99.90
2023-03-29T18:46:07.818Z,99.90
2023-03-29T18:48:38.804Z,99.90
2023-03-29T18:51:07.410Z,99.90
2023-03-29T18:53:35.256Z,99.90
2023-03-29T18:56:03.445Z,99.90
2023-03-29T18:58:30.704Z,99.90
2023-03-29T19:01:05.150Z,99.90
2023-03-29T19:03:35.564Z,99.90
2023-03-29T19:06:02.977Z,99.90
2023-03-29T19:08:30.065Z,99.90
2023-03-29T19:11:01.335Z,99.90
2023-03-29T19:13:28.093Z,99.90
2023-03-29T19:15:54.895Z,99.90
2023-03-29T19:18:21.967Z,99.90
2023-03-29T19:20:53.820Z,99.90
2023-03-29T19:23:21.660Z,99.90
2023-03-29T19:25:55.978Z,99.90
2023-03-29T19:28:23.179Z,99.90
2023-03-29T19:30:50.075Z,99.90
2023-03-29T19:33:17.144Z,99.90
2023-03-29T19:35:44.118Z,99.90
2023-03-29T19:38:11.102Z,99.90
2023-03-29T19:40:37.882Z,99.90
2023-03-29T19:43:04.833Z,99.90
2023-03-29T19:45:31.686Z,99.90
2023-03-29T19:50:26.765Z,99.90
2023-03-29T19:52:54.604Z,99.90
2023-03-29T19:55:21.775Z,99.90
2023-03-29T19:57:48.793Z,99.90
2023-03-29T20:00:15.659Z,99.90
2023-03-29T20:02:42.520Z,99.90
2023-03-29T20:05:09.580Z,99.90
2023-03-29T20:07:36.634Z,99.90
2023-03-29T20:10:03.825Z,99.90
2023-03-29T20:12:30.602Z,99.90
2023-03-29T20:14:57.384Z,99.90
2023-03-29T20:17:24.263Z,99.90
2023-03-29T20:19:50.998Z,99.90
2023-03-29T20:22:19.043Z,99.90
2023-03-29T20:24:45.936Z,99.90
2023-03-29T20:27:12.732Z,99.90
2023-03-29T20:29:39.463Z,99.90
2023-03-29T20:32:06.669Z,99.90
2023-03-29T20:34:33.716Z,99.90
2023-03-29T20:37:02.109Z,99.90
2023-03-29T20:39:29.587Z,99.90
2023-03-29T20:41:56.360Z,99.90
2023-03-29T20:44:26.271Z,99.90
2023-03-29T20:47:03.313Z,99.90
2023-03-29T20:49:40.055Z,99.90
2023-03-29T20:52:10.642Z,99.90
2023-03-29T20:54:38.667Z,99.90
2023-03-29T20:57:06.832Z,99.90
2023-03-29T20:59:34.499Z,99.90
2023-03-29T21:02:01.553Z,99.90
2023-03-29T21:04:28.489Z,99.90
2023-03-29T21:06:56.194Z,99.90
2023-03-29T21:09:23.866Z,99.90
2023-03-29T21:11:51.407Z,99.90
2023-03-29T21:14:21.358Z,99.90
2023-03-29T21:16:49.147Z,99.90
2023-03-29T21:19:16.118Z,99.90
2023-03-29T21:21:43.560Z,99.90
2023-03-29T21:24:10.956Z,99.90
2023-03-29T21:26:37.737Z,99.90
2023-03-29T21:29:04.662Z,99.90
2023-03-29T21:31:31.556Z,99.90
2023-03-29T21:33:58.619Z,99.90
2023-03-29T21:36:25.731Z,99.90
2023-03-29T21:38:52.542Z,99.90
2023-03-29T21:41:19.404Z,99.90
2023-03-29T21:43:46.480Z,99.90
2023-03-29T21:46:13.431Z,99.90
2023-03-29T21:48:41.787Z,99.90
2023-03-29T21:51:08.838Z,99.90
2023-03-29T21:53:35.680Z,99.90
2023-03-29T21:56:02.726Z,99.90
2023-03-29T21:58:29.439Z,99.90
2023-03-29T22:00:56.996Z,99.90
2023-03-29T22:03:23.782Z,99.90
2023-03-29T22:05:57.555Z,99.90
2023-03-29T22:08:26.281Z,99.90
2023-03-29T22:10:56.902Z,99.90
2023-03-29T22:13:28.026Z,99.90
2023-03-29T22:15:56.034Z,99.90
2023-03-29T22:18:22.883Z,99.90
2023-03-29T22:20:49.953Z,99.90
2023-03-29T22:23:16.731Z,99.90
2023-03-29T22:25:43.511Z,99.90
2023-03-29T22:28:10.341Z,99.90
2023-03-29T22:30:37.225Z,99.90
2023-03-29T22:33:03.988Z,99.90
2023-03-29T22:35:30.764Z,99.90
2023-03-29T22:37:57.588Z,99.90
2023-03-29T22:40:24.356Z,99.90
2023-03-29T22:42:51.313Z,99.90
2023-03-29T22:45:18.211Z,99.90
2023-03-29T22:47:45.058Z,99.90
2023-03-29T22:50:12.043Z,99.90
2023-03-29T22:52:38.813Z,99.90
2023-03-29T22:55:06.482Z,99.90
2023-03-29T22:57:33.280Z,99.90
2023-03-29T23:00:00.588Z,99.90
2023-03-29T23:02:27.392Z,99.90
2023-03-29T23:04:54.257Z,99.90
2023-03-29T23:07:21.251Z,99.90
2023-03-29T23:09:48.086Z,99.90
2023-03-29T23:12:14.858Z,99.90
2023-03-29T23:14:42.889Z,99.90
2023-03-29T23:17:10.394Z,99.90
2023-03-29T23:19:38.071Z,99.90
2023-03-29T23:22:04.734Z,99.90
2023-03-29T23:24:31.656Z,99.90
2023-03-29T23:26:58.263Z,99.90
2023-03-29T23:29:26.211Z,99.90
2023-03-29T23:31:53.692Z,99.90
2023-03-29T23:34:20.419Z,99.90
2023-03-29T23:36:47.094Z,99.90
2023-03-29T23:39:16.017Z,99.90
2023-03-29T23:41:42.669Z,99.90
2023-03-29T23:44:09.359Z,99.90
2023-03-29T23:46:36.062Z,99.90
2023-03-29T23:49:03.217Z,99.90
2023-03-29T23:51:29.942Z,99.90
2023-03-29T23:53:56.845Z,99.90
2023-03-29T23:56:23.611Z,99.90
2023-03-29T23:58:50.820Z,99.90
